createdAt,value
2022-10-15T00:02:14.202Z,13.92
2022-10-15T00:04:49.071Z,13.91
2022-10-15T00:07:19.941Z,13.90
2022-10-15T00:09:50.814Z,13.93
2022-10-15T00:12:20.587Z,13.92
2022-10-15T00:14:53.488Z,13.93
2022-10-15T00:17:28.307Z,13.94
2022-10-15T00:19:58.292Z,13.94
2022-10-15T00:22:28.441Z,13.94
2022-10-15T00:24:57.637Z,13.94
2022-10-15T00:27:34.862Z,13.93
2022-10-15T00:30:04.802Z,13.95
2022-10-15T00:32:51.782Z,13.95
2022-10-15T00:35:24.848Z,13.95
2022-10-15T00:37:54.440Z,13.96
2022-10-15T00:40:32.659Z,13.94
2022-10-15T00:43:01.739Z,13.89
2022-10-15T00:45:32.417Z,13.93
2022-10-15T00:48:03.216Z,13.86
2022-10-15T00:50:33.974Z,13.92
2022-10-15T00:53:27.587Z,13.92
2022-10-15T00:55:58.134Z,13.92
2022-10-15T00:58:38.106Z,13.92
2022-10-15T01:01:16.550Z,13.88
2022-10-15T01:03:50.020Z,13.89
2022-10-15T01:06:19.417Z,13.89
2022-10-15T01:08:51.941Z,13.88
2022-10-15T01:11:54.355Z,13.90
2022-10-15T01:14:38.631Z,13.92
2022-10-15T01:17:23.215Z,13.93
2022-10-15T01:20:58.581Z,13.92
2022-10-15T01:24:27.487Z,13.87
2022-10-15T01:27:43.505Z,13.90
2022-10-15T01:30:38.615Z,13.87
2022-10-15T01:33:34.230Z,13.88
2022-10-15T01:36:16.057Z,13.89
2022-10-15T01:38:59.135Z,13.85
2022-10-15T01:41:38.239Z,13.78
2022-10-15T01:44:27.586Z,13.91
2022-10-15T01:47:03.833Z,13.87
2022-10-15T01:49:40.336Z,13.92
2022-10-15T01:52:16.152Z,13.91
2022-10-15T01:54:56.101Z,13.92
2022-10-15T01:57:32.217Z,13.91
2022-10-15T02:00:06.951Z,13.91
2022-10-15T02:02:52.246Z,13.91
2022-10-15T02:05:37.610Z,13.89
2022-10-15T02:08:20.473Z,13.88
2022-10-15T02:11:08.984Z,13.85
2022-10-15T02:13:53.143Z,13.81
2022-10-15T02:16:26.727Z,13.89
2022-10-15T02:19:08.451Z,13.91
2022-10-15T02:21:40.605Z,13.91
2022-10-15T02:24:15.613Z,13.94
2022-10-15T02:26:51.473Z,13.96
2022-10-15T02:29:24.356Z,13.96
2022-10-15T02:31:59.047Z,13.95
2022-10-15T02:34:32.619Z,13.98
2022-10-15T02:37:06.178Z,13.98
2022-10-15T02:39:36.172Z,14.00
2022-10-15T02:42:19.777Z,14.00
2022-10-15T02:44:49.235Z,13.95
2022-10-15T02:47:21.613Z,13.95
2022-10-15T02:49:57.292Z,13.92
2022-10-15T02:52:27.968Z,13.92
2022-10-15T02:55:05.112Z,13.90
2022-10-15T02:57:33.613Z,13.91
2022-10-15T03:00:03.050Z,13.85
2022-10-15T03:02:35.005Z,13.91
2022-10-15T03:05:05.116Z,13.93
2022-10-15T03:07:36.529Z,13.94
2022-10-15T03:10:31.494Z,13.96
2022-10-15T03:13:05.404Z,13.94
2022-10-15T03:15:34.714Z,13.89
2022-10-15T03:18:05.595Z,13.98
2022-10-15T03:20:36.837Z,13.95
2022-10-15T03:23:06.323Z,13.98
2022-10-15T03:25:41.986Z,13.96
2022-10-15T03:28:16.273Z,13.97
2022-10-15T03:30:47.454Z,13.93
2022-10-15T03:33:17.804Z,13.90
2022-10-15T03:35:54.317Z,13.91
2022-10-15T03:38:29.929Z,13.93
2022-10-15T03:41:05.511Z,13.92
2022-10-15T03:43:41.905Z,13.90
2022-10-15T03:46:14.407Z,13.89
2022-10-15T03:48:43.715Z,13.90
2022-10-15T03:51:24.619Z,13.86
2022-10-15T03:53:57.995Z,13.88
2022-10-15T03:56:38.345Z,13.89
2022-10-15T03:59:15.509Z,13.90
2022-10-15T04:01:45.661Z,13.88
2022-10-15T04:04:23.731Z,13.95
2022-10-15T04:06:56.571Z,13.91
2022-10-15T04:09:33.897Z,13.92
2022-10-15T04:12:05.857Z,13.96
2022-10-15T04:14:36.228Z,13.87
2022-10-15T04:17:11.578Z,13.94
2022-10-15T04:19:42.458Z,13.95
2022-10-15T04:22:12.430Z,13.95
2022-10-15T04:24:41.211Z,13.95
2022-10-15T04:27:12.331Z,13.95
2022-10-15T04:29:41.043Z,13.95
2022-10-15T04:35:09.042Z,13.94
2022-10-15T04:37:40.657Z,13.90
2022-10-15T04:42:54.655Z,13.81
2022-10-15T04:47:55.226Z,13.77
2022-10-15T04:50:25.367Z,13.81
2022-10-15T04:52:56.719Z,13.77
2022-10-15T04:58:07.275Z,13.71
2022-10-15T05:00:36.621Z,13.70
2022-10-15T05:03:20.728Z,13.73
2022-10-15T05:05:50.128Z,13.71
2022-10-15T05:11:09.663Z,13.69
2022-10-15T05:13:39.734Z,13.67
2022-10-15T05:16:17.143Z,13.59
2022-10-15T05:18:49.141Z,13.65
2022-10-15T05:21:24.060Z,13.63
2022-10-15T05:24:01.573Z,13.62
2022-10-15T05:26:34.033Z,13.61
2022-10-15T05:29:03.187Z,13.64
2022-10-15T05:31:48.356Z,13.54
2022-10-15T05:34:17.137Z,13.61
2022-10-15T05:36:45.852Z,13.61
2022-10-15T05:39:16.981Z,13.59
2022-10-15T05:42:00.296Z,13.59
2022-10-15T05:44:31.880Z,13.61
2022-10-15T05:47:09.228Z,13.59
2022-10-15T05:52:23.691Z,13.56
2022-10-15T05:54:56.446Z,13.56
2022-10-15T05:57:25.744Z,13.51
2022-10-15T06:00:00.478Z,13.54
2022-10-15T06:02:29.380Z,13.54
2022-10-15T06:04:59.647Z,13.50
2022-10-15T06:07:29.343Z,13.52
2022-10-15T06:10:15.769Z,13.52
2022-10-15T06:12:44.961Z,13.54
2022-10-15T06:15:22.238Z,13.53
2022-10-15T06:17:54.664Z,13.50
2022-10-15T06:20:23.180Z,13.56
2022-10-15T06:22:52.495Z,13.55
2022-10-15T06:25:22.634Z,13.56
2022-10-15T06:27:51.767Z,13.51
2022-10-15T06:30:21.477Z,13.61
2022-10-15T06:32:50.999Z,13.61
2022-10-15T06:35:23.039Z,13.65
2022-10-15T06:37:51.915Z,13.66
2022-10-15T06:40:35.701Z,13.69
2022-10-15T06:45:52.969Z,13.74
2022-10-15T06:50:51.050Z,13.76
2022-10-15T06:53:34.305Z,13.85
2022-10-15T06:56:09.022Z,13.83
2022-10-15T06:58:39.291Z,13.83
2022-10-15T07:01:10.188Z,13.90
2022-10-15T07:03:39.194Z,13.90
2022-10-15T07:06:10.314Z,13.93
2022-10-15T07:08:40.597Z,13.97
2022-10-15T07:11:13.494Z,14.04
2022-10-15T07:13:42.094Z,14.07
2022-10-15T07:16:14.770Z,14.09
2022-10-15T07:18:51.598Z,14.11
2022-10-15T07:21:20.238Z,14.13
2022-10-15T07:23:49.923Z,14.10
2022-10-15T07:26:19.773Z,14.23
2022-10-15T07:28:50.153Z,14.27
2022-10-15T07:31:18.449Z,14.34
2022-10-15T07:33:50.521Z,14.35
2022-10-15T07:36:23.009Z,14.32
2022-10-15T07:38:52.009Z,14.31
2022-10-15T07:41:26.840Z,14.33
2022-10-15T07:43:55.401Z,14.35
2022-10-15T07:46:23.768Z,14.42
2022-10-15T07:48:53.930Z,14.58
2022-10-15T07:51:25.570Z,14.61
2022-10-15T07:53:54.062Z,14.77
2022-10-15T07:56:31.855Z,14.85
2022-10-15T07:59:05.310Z,14.88
2022-10-15T08:01:34.174Z,14.93
2022-10-15T08:04:03.172Z,14.97
2022-10-15T08:06:42.222Z,14.91
2022-10-15T08:09:12.895Z,14.87
2022-10-15T08:11:44.467Z,14.78
2022-10-15T08:14:27.907Z,14.76
2022-10-15T08:17:04.666Z,14.76
2022-10-15T08:19:33.410Z,14.77
2022-10-15T08:22:09.515Z,14.81
2022-10-15T08:24:37.795Z,14.93
2022-10-15T08:27:15.034Z,15.00
2022-10-15T08:29:43.561Z,15.12
2022-10-15T08:32:21.456Z,15.26
2022-10-15T08:34:50.406Z,15.48
2022-10-15T08:37:23.651Z,15.63
2022-10-15T08:39:59.406Z,15.71
2022-10-15T08:42:38.992Z,15.74
2022-10-15T08:45:23.323Z,15.82
2022-10-15T08:48:00.379Z,15.86
2022-10-15T08:50:39.880Z,16.01
2022-10-15T08:53:13.445Z,16.11
2022-10-15T08:55:47.810Z,16.12
2022-10-15T08:58:30.375Z,16.18
2022-10-15T09:01:07.840Z,16.26
2022-10-15T09:06:41.948Z,16.45
2022-10-15T09:09:19.626Z,16.60
2022-10-15T09:12:00.846Z,16.76
2022-10-15T09:14:43.081Z,16.75
2022-10-15T09:17:41.742Z,16.96
2022-10-15T09:20:20.863Z,17.09
2022-10-15T09:23:09.966Z,17.26
2022-10-15T09:25:48.697Z,17.24
2022-10-15T09:28:21.307Z,17.28
2022-10-15T09:31:01.372Z,17.34
2022-10-15T09:33:42.466Z,17.32
2022-10-15T09:36:33.606Z,17.34
2022-10-15T09:39:29.554Z,17.29
2022-10-15T09:42:26.307Z,17.25
2022-10-15T09:48:22.337Z,17.30
2022-10-15T09:51:11.670Z,17.24
2022-10-15T09:54:12.812Z,17.11
2022-10-15T09:57:09.888Z,17.04
2022-10-15T10:03:13.587Z,17.05
2022-10-15T10:06:11.268Z,16.90
2022-10-15T10:09:02.489Z,16.93
2022-10-15T10:12:19.896Z,16.78
2022-10-15T10:15:18.597Z,16.60
2022-10-15T10:18:23.947Z,16.53
2022-10-15T10:24:41.347Z,16.33
2022-10-15T10:30:34.451Z,16.08
2022-10-15T10:33:18.096Z,16.05
2022-10-15T10:36:15.615Z,16.21
2022-10-15T10:39:05.919Z,16.18
2022-10-15T10:42:49.177Z,16.26
2022-10-15T10:45:41.721Z,16.32
2022-10-15T10:48:26.951Z,16.46
2022-10-15T10:51:45.820Z,16.50
2022-10-15T10:54:36.519Z,16.47
2022-10-15T10:57:30.592Z,16.60
2022-10-15T11:00:11.389Z,16.58
2022-10-15T11:02:44.504Z,16.66
2022-10-15T11:05:29.066Z,16.84
2022-10-15T11:11:24.446Z,17.51
2022-10-15T11:14:20.449Z,17.77
2022-10-15T11:17:03.368Z,18.05
2022-10-15T11:20:12.133Z,18.25
2022-10-15T11:23:04.195Z,18.36
2022-10-15T11:25:53.868Z,18.30
2022-10-15T11:29:05.976Z,18.26
2022-10-15T11:32:02.007Z,18.51
2022-10-15T11:35:01.829Z,18.43
2022-10-15T11:37:50.266Z,18.43
2022-10-15T11:40:35.334Z,18.50
2022-10-15T11:44:02.608Z,18.59
2022-10-15T11:46:50.392Z,18.55
2022-10-15T11:49:46.762Z,18.35
2022-10-15T11:52:52.998Z,18.32
2022-10-15T11:55:53.644Z,18.28
2022-10-15T12:02:05.304Z,18.09
2022-10-15T12:04:51.360Z,18.02
2022-10-15T12:07:29.881Z,18.11
2022-10-15T12:10:22.068Z,18.08
2022-10-15T12:13:17.765Z,18.04
2022-10-15T12:15:56.971Z,18.05
2022-10-15T12:18:52.421Z,18.06
2022-10-15T12:21:49.567Z,18.05
2022-10-15T12:27:44.863Z,18.03
2022-10-15T12:30:38.703Z,18.22
2022-10-15T12:33:54.868Z,18.31
2022-10-15T12:36:45.762Z,18.46
2022-10-15T12:39:47.573Z,18.49
2022-10-15T12:42:31.963Z,18.45
2022-10-15T12:45:04.658Z,18.49
2022-10-15T12:47:55.448Z,18.50
2022-10-15T12:50:35.987Z,18.54
2022-10-15T12:53:57.705Z,18.57
2022-10-15T12:56:43.131Z,18.58
2022-10-15T12:59:51.750Z,18.54
2022-10-15T13:02:50.733Z,18.61
2022-10-15T13:09:26.520Z,18.66
2022-10-15T13:12:11.089Z,18.48
2022-10-15T13:14:47.669Z,18.47
2022-10-15T13:17:27.055Z,18.34
2022-10-15T13:20:34.326Z,18.31
2022-10-15T13:23:31.039Z,18.16
2022-10-15T13:26:34.610Z,18.04
2022-10-15T13:29:09.840Z,17.95
2022-10-15T13:31:50.150Z,17.96
2022-10-15T13:34:32.262Z,17.85
2022-10-15T13:37:37.709Z,17.57
2022-10-15T13:40:21.093Z,17.59
2022-10-15T13:45:55.943Z,17.58
2022-10-15T13:51:23.565Z,17.63
2022-10-15T13:54:13.760Z,17.65
2022-10-15T13:59:59.047Z,17.60
2022-10-15T14:02:52.176Z,17.60
2022-10-15T14:05:30.879Z,17.61
2022-10-15T14:11:07.434Z,17.53
2022-10-15T14:13:47.080Z,17.50
2022-10-15T14:20:14.372Z,17.32
2022-10-15T14:22:59.641Z,17.30
2022-10-15T14:25:55.085Z,17.28
2022-10-15T14:32:10.091Z,17.30
2022-10-15T14:34:45.415Z,17.34
2022-10-15T14:37:48.326Z,17.35
2022-10-15T14:40:38.543Z,17.32
2022-10-15T14:46:36.199Z,17.13
2022-10-15T14:49:41.837Z,17.08
2022-10-15T14:55:25.980Z,17.22
2022-10-15T15:00:49.250Z,17.27
2022-10-15T15:03:39.731Z,17.26
2022-10-15T15:06:27.409Z,17.24
2022-10-15T15:09:08.632Z,17.28
2022-10-15T15:11:42.193Z,17.21
2022-10-15T15:14:33.090Z,17.38
2022-10-15T15:17:07.136Z,17.48
2022-10-15T15:20:08.796Z,17.50
2022-10-15T15:22:57.981Z,17.48
2022-10-15T15:25:38.942Z,17.49
2022-10-15T15:28:30.761Z,17.40
2022-10-15T15:34:02.520Z,17.46
2022-10-15T15:36:49.746Z,17.47
2022-10-15T15:39:47.371Z,17.41
2022-10-15T15:45:45.413Z,17.44
2022-10-15T15:48:22.676Z,17.50
2022-10-15T15:51:33.334Z,17.55
2022-10-15T15:54:47.281Z,17.44
2022-10-15T15:57:26.625Z,17.32
2022-10-15T16:03:24.341Z,17.07
2022-10-15T16:06:04.996Z,16.99
2022-10-15T16:08:46.732Z,16.88
2022-10-15T16:14:12.513Z,16.85
2022-10-15T16:17:01.970Z,16.77
2022-10-15T16:19:35.677Z,16.79
2022-10-15T16:22:11.667Z,16.89
2022-10-15T16:24:48.529Z,16.88
2022-10-15T16:27:47.179Z,16.78
2022-10-15T16:30:21.952Z,16.82
2022-10-15T16:35:49.484Z,16.71
2022-10-15T16:38:25.903Z,16.77
2022-10-15T16:41:10.136Z,16.71
2022-10-15T16:43:54.008Z,16.79
2022-10-15T16:46:25.831Z,16.71
2022-10-15T16:49:01.909Z,16.75
2022-10-15T16:51:34.986Z,16.73
2022-10-15T16:54:09.386Z,16.70
2022-10-15T16:59:56.316Z,16.66
2022-10-15T17:02:37.001Z,16.59
2022-10-15T17:05:22.314Z,16.49
2022-10-15T17:08:14.514Z,16.41
2022-10-15T17:10:50.415Z,16.31
2022-10-15T17:13:26.317Z,16.23
2022-10-15T17:19:26.451Z,16.13
2022-10-15T17:22:06.748Z,16.04
2022-10-15T17:24:49.219Z,16.01
2022-10-15T17:27:40.820Z,15.91
2022-10-15T17:30:35.969Z,15.90
2022-10-15T17:33:58.202Z,15.83
2022-10-15T17:36:44.485Z,15.77
2022-10-15T17:39:17.488Z,15.73
2022-10-15T17:41:56.943Z,15.64
2022-10-15T17:44:27.130Z,15.61
2022-10-15T17:47:09.905Z,15.48
2022-10-15T17:49:45.397Z,15.53
2022-10-15T17:52:24.943Z,15.49
2022-10-15T17:55:07.448Z,15.46
2022-10-15T17:58:10.181Z,15.41
2022-10-15T18:00:38.581Z,15.35
2022-10-15T18:03:31.575Z,15.32
2022-10-15T18:06:21.267Z,15.37
2022-10-15T18:09:08.767Z,15.30
2022-10-15T18:11:45.218Z,15.23
2022-10-15T18:14:23.383Z,15.27
2022-10-15T18:16:57.722Z,15.30
2022-10-15T18:19:30.004Z,15.23
2022-10-15T18:22:18.085Z,15.16
2022-10-15T18:25:00.871Z,15.20
2022-10-15T18:27:33.389Z,15.12
2022-10-15T18:30:17.489Z,15.14
2022-10-15T18:33:13.491Z,15.12
2022-10-15T18:35:44.474Z,14.94
2022-10-15T18:38:19.647Z,15.00
2022-10-15T18:40:50.549Z,14.99
2022-10-15T18:43:41.694Z,15.00
2022-10-15T18:49:07.379Z,14.84
2022-10-15T18:51:43.821Z,14.94
2022-10-15T18:54:28.239Z,14.91
2022-10-15T18:57:07.961Z,14.87
2022-10-15T18:59:58.247Z,14.78
2022-10-15T19:02:41.095Z,14.80
2022-10-15T19:05:11.839Z,14.77
2022-10-15T19:07:48.593Z,14.63
2022-10-15T19:10:51.331Z,14.62
2022-10-15T19:13:23.274Z,14.66
2022-10-15T19:15:56.630Z,14.61
2022-10-15T19:18:39.248Z,14.55
2022-10-15T19:21:17.828Z,14.55
2022-10-15T19:23:59.249Z,14.51
2022-10-15T19:27:12.797Z,14.36
2022-10-15T19:30:18.121Z,14.47
2022-10-15T19:32:50.587Z,14.44
2022-10-15T19:35:37.316Z,14.44
2022-10-15T19:38:27.554Z,14.43
2022-10-15T19:43:58.072Z,14.38
2022-10-15T19:46:54.287Z,14.36
2022-10-15T19:49:38.124Z,14.34
2022-10-15T19:52:20.593Z,14.40
2022-10-15T19:55:18.711Z,14.38
2022-10-15T19:57:52.711Z,14.35
2022-10-15T20:00:22.956Z,14.31
2022-10-15T20:03:11.282Z,14.34
2022-10-15T20:05:57.789Z,14.31
2022-10-15T20:08:29.125Z,14.24
2022-10-15T20:11:21.435Z,14.23
2022-10-15T20:14:08.273Z,14.27
2022-10-15T20:16:56.257Z,14.28
2022-10-15T20:19:36.828Z,14.29
2022-10-15T20:22:26.434Z,14.24
2022-10-15T20:31:01.898Z,14.36
2022-10-15T20:33:41.916Z,14.43
2022-10-15T20:36:41.498Z,14.45
2022-10-15T20:39:21.080Z,14.44
2022-10-15T20:42:14.931Z,14.29
2022-10-15T20:44:51.380Z,14.31
2022-10-15T20:47:27.319Z,14.30
2022-10-15T20:50:00.182Z,14.26
2022-10-15T20:52:48.042Z,14.22
2022-10-15T20:55:21.432Z,14.13
2022-10-15T20:58:12.084Z,14.11
2022-10-15T21:01:03.930Z,14.07
2022-10-15T21:03:43.681Z,14.04
2022-10-15T21:06:25.102Z,13.93
2022-10-15T21:09:47.083Z,13.97
2022-10-15T21:12:31.506Z,13.90
2022-10-15T21:15:13.593Z,13.93
2022-10-15T21:17:59.381Z,13.86
2022-10-15T21:20:41.868Z,13.82
2022-10-15T21:23:28.814Z,13.89
2022-10-15T21:26:10.807Z,13.89
2022-10-15T21:29:03.172Z,13.89
2022-10-15T21:31:49.747Z,13.87
2022-10-15T21:34:21.915Z,13.86
2022-10-15T21:39:51.865Z,13.85
2022-10-15T21:45:56.073Z,13.80
2022-10-15T21:48:36.241Z,13.79
2022-10-15T21:51:16.391Z,13.76
2022-10-15T21:54:03.740Z,13.74
2022-10-15T21:56:35.992Z,13.69
2022-10-15T21:59:09.729Z,13.75
2022-10-15T22:07:21.042Z,13.66
2022-10-15T22:10:23.219Z,13.74
2022-10-15T22:13:17.110Z,13.67
2022-10-15T22:16:03.475Z,13.70
2022-10-15T22:18:41.975Z,13.63
2022-10-15T22:21:33.142Z,13.71
2022-10-15T22:24:16.231Z,13.68
2022-10-15T22:26:47.821Z,13.60
2022-10-15T22:29:34.505Z,13.74
2022-10-15T22:32:26.984Z,13.73
2022-10-15T22:34:58.765Z,13.76
2022-10-15T22:37:39.761Z,13.75
2022-10-15T22:40:16.663Z,13.77
2022-10-15T22:42:52.668Z,13.70
2022-10-15T22:45:24.610Z,13.76
2022-10-15T22:48:16.858Z,13.73
2022-10-15T22:50:58.351Z,13.76
2022-10-15T22:53:54.806Z,13.74
2022-10-15T22:56:27.070Z,13.72
2022-10-15T22:59:04.539Z,13.74
2022-10-15T23:01:39.295Z,13.68
2022-10-15T23:04:16.840Z,13.76
2022-10-15T23:12:52.271Z,13.77
2022-10-15T23:15:36.243Z,13.78
2022-10-15T23:18:24.581Z,13.76
2022-10-15T23:21:06.976Z,13.71
2022-10-15T23:26:34.870Z,13.69
2022-10-15T23:29:10.728Z,13.72
2022-10-15T23:37:39.682Z,13.66
2022-10-15T23:40:50.005Z,13.61
2022-10-15T23:43:28.705Z,13.59
2022-10-15T23:46:01.270Z,13.61
2022-10-15T23:48:40.509Z,13.59
2022-10-15T23:51:28.002Z,13.59
2022-10-15T23:57:02.997Z,13.56
2022-10-15T23:59:35.499Z,13.55
